sensor_id;sensor_type;location;lat;lon;timestamp;temperature;humidity
55091;DHT22;40985;53.180;5.800;2022-12-07T00:00:49;4.00;99.90
55091;DHT22;40985;53.180;5.800;2022-12-07T00:03:15;3.90;99.90
55091;DHT22;40985;53.180;5.800;2022-12-07T00:05:40;3.90;99.90
55091;DHT22;40985;53.180;5.800;2022-12-07T00:08:06;3.90;99.90
55091;DHT22;40985;53.180;5.800;2022-12-07T00:10:33;3.90;99.90
55091;DHT22;40985;53.180;5.800;2022-12-07T00:12:59;3.90;99.90
55091;DHT22;40985;53.180;5.800;2022-12-07T00:15:25;3.80;99.90
55091;DHT22;40985;53.180;5.800;2022-12-07T00:17:51;3.80;99.90
55091;DHT22;40985;53.180;5.800;2022-12-07T00:20:16;3.80;99.90
55091;DHT22;40985;53.180;5.800;2022-12-07T00:22:42;3.90;99.90
55091;DHT22;40985;53.180;5.800;2022-12-07T00:25:08;3.90;99.90
55091;DHT22;40985;53.180;5.800;2022-12-07T00:27:33;3.90;99.90
55091;DHT22;40985;53.180;5.800;2022-12-07T00:29:59;4.00;99.90
55091;DHT22;40985;53.180;5.800;2022-12-07T00:32:25;4.00;99.90
55091;DHT22;40985;53.180;5.800;2022-12-07T00:34:50;4.10;99.90
55091;DHT22;40985;53.180;5.800;2022-12-07T00:37:16;4.30;99.90
55091;DHT22;40985;53.180;5.800;2022-12-07T00:39:41;4.40;99.90
55091;DHT22;40985;53.180;5.800;2022-12-07T00:42:07;4.40;99.90
55091;DHT22;40985;53.180;5.800;2022-12-07T00:44:33;4.60;99.90
55091;DHT22;40985;53.180;5.800;2022-12-07T00:46:58;4.60;99.90
55091;DHT22;40985;53.180;5.800;2022-12-07T00:49:24;4.50;99.90
55091;DHT22;40985;53.180;5.800;2022-12-07T00:51:50;4.50;99.90
55091;DHT22;40985;53.180;5.800;2022-12-07T00:54:15;4.40;99.90
55091;DHT22;40985;53.180;5.800;2022-12-07T00:56:41;4.30;99.90
55091;DHT22;40985;53.180;5.800;2022-12-07T00:59:06;4.20;99.90
55091;DHT22;40985;53.180;5.800;2022-12-07T01:01:35;4.30;99.90
55091;DHT22;40985;53.180;5.800;2022-12-07T01:04:02;4.30;99.90
55091;DHT22;40985;53.180;5.800;2022-12-07T01:06:29;4.20;99.90
55091;DHT22;40985;53.180;5.800;2022-12-07T01:08:55;4.20;99.90
55091;DHT22;40985;53.180;5.800;2022-12-07T01:11:23;4.20;99.90
55091;DHT22;40985;53.180;5.800;2022-12-07T01:13:50;4.20;99.90
55091;DHT22;40985;53.180;5.800;2022-12-07T01:16:17;4.20;99.90
55091;DHT22;40985;53.180;5.800;2022-12-07T01:18:46;4.20;99.90
55091;DHT22;40985;53.180;5.800;2022-12-07T01:21:21;4.20;99.90
55091;DHT22;40985;53.180;5.800;2022-12-07T01:23:47;4.20;99.90
55091;DHT22;40985;53.180;5.800;2022-12-07T01:26:15;4.20;99.90
55091;DHT22;40985;53.180;5.800;2022-12-07T01:28:41;4.00;99.90
55091;DHT22;40985;53.180;5.800;2022-12-07T01:31:10;4.00;99.90
55091;DHT22;40985;53.180;5.800;2022-12-07T01:33:44;4.00;99.90
55091;DHT22;40985;53.180;5.800;2022-12-07T01:36:17;3.90;99.90
55091;DHT22;40985;53.180;5.800;2022-12-07T01:38:46;3.90;99.90
55091;DHT22;40985;53.180;5.800;2022-12-07T01:41:13;3.90;99.90
55091;DHT22;40985;53.180;5.800;2022-12-07T01:46:32;3.90;99.90
55091;DHT22;40985;53.180;5.800;2022-12-07T01:48:58;3.90;99.90
55091;DHT22;40985;53.180;5.800;2022-12-07T01:51:25;3.80;99.90
55091;DHT22;40985;53.180;5.800;2022-12-07T01:53:52;3.80;99.90
55091;DHT22;40985;53.180;5.800;2022-12-07T01:56:22;3.80;99.90
55091;DHT22;40985;53.180;5.800;2022-12-07T01:58:51;3.70;99.90
55091;DHT22;40985;53.180;5.800;2022-12-07T02:01:17;3.80;99.90
55091;DHT22;40985;53.180;5.800;2022-12-07T02:03:44;3.80;99.90
55091;DHT22;40985;53.180;5.800;2022-12-07T02:06:12;3.70;99.90
55091;DHT22;40985;53.180;5.800;2022-12-07T02:08:41;3.80;99.90
55091;DHT22;40985;53.180;5.800;2022-12-07T02:11:08;3.80;99.90
55091;DHT22;40985;53.180;5.800;2022-12-07T02:13:36;3.90;99.90
55091;DHT22;40985;53.180;5.800;2022-12-07T02:29:06;3.90;99.90
55091;DHT22;40985;53.180;5.800;2022-12-07T02:31:38;4.10;99.90
55091;DHT22;40985;53.180;5.800;2022-12-07T02:34:16;4.30;99.90
55091;DHT22;40985;53.180;5.800;2022-12-07T02:36:49;4.20;99.90
55091;DHT22;40985;53.180;5.800;2022-12-07T02:39:19;4.20;99.90
55091;DHT22;40985;53.180;5.800;2022-12-07T02:41:53;4.30;99.90
55091;DHT22;40985;53.180;5.800;2022-12-07T02:44:23;4.30;99.90
55091;DHT22;40985;53.180;5.800;2022-12-07T02:46:56;4.30;99.90
55091;DHT22;40985;53.180;5.800;2022-12-07T02:49:23;4.30;99.90
55091;DHT22;40985;53.180;5.800;2022-12-07T02:51:50;4.30;99.90
55091;DHT22;40985;53.180;5.800;2022-12-07T02:54:19;4.20;99.90
55091;DHT22;40985;53.180;5.800;2022-12-07T02:56:57;4.30;99.90
55091;DHT22;40985;53.180;5.800;2022-12-07T03:02:25;4.40;99.90
55091;DHT22;40985;53.180;5.800;2022-12-07T03:05:13;4.30;99.90
55091;DHT22;40985;53.180;5.800;2022-12-07T03:13:22;4.20;99.90
55091;DHT22;40985;53.180;5.800;2022-12-07T03:18:40;4.20;99.90
55091;DHT22;40985;53.180;5.800;2022-12-07T03:21:11;4.30;99.90
55091;DHT22;40985;53.180;5.800;2022-12-07T03:23:42;4.40;99.90
55091;DHT22;40985;53.180;5.800;2022-12-07T03:26:12;4.40;99.90
55091;DHT22;40985;53.180;5.800;2022-12-07T03:28:42;4.30;99.90
55091;DHT22;40985;53.180;5.800;2022-12-07T03:31:18;4.30;99.90
55091;DHT22;40985;53.180;5.800;2022-12-07T03:33:57;4.30;99.90
55091;DHT22;40985;53.180;5.800;2022-12-07T03:36:31;4.30;99.90
55091;DHT22;40985;53.180;5.800;2022-12-07T03:39:18;4.30;99.90
55091;DHT22;40985;53.180;5.800;2022-12-07T03:41:45;4.40;99.90
55091;DHT22;40985;53.180;5.800;2022-12-07T03:44:12;4.40;99.90
55091;DHT22;40985;53.180;5.800;2022-12-07T03:46:50;4.40;99.90
55091;DHT22;40985;53.180;5.800;2022-12-07T03:54:55;4.20;99.90
55091;DHT22;40985;53.180;5.800;2022-12-07T03:57:21;4.20;99.90
55091;DHT22;40985;53.180;5.800;2022-12-07T03:59:48;4.10;99.90
55091;DHT22;40985;53.180;5.800;2022-12-07T04:02:14;4.20;99.90
55091;DHT22;40985;53.180;5.800;2022-12-07T04:04:41;4.20;99.90
55091;DHT22;40985;53.180;5.800;2022-12-07T04:07:08;4.10;99.90
55091;DHT22;40985;53.180;5.800;2022-12-07T04:09:33;4.20;99.90
55091;DHT22;40985;53.180;5.800;2022-12-07T04:11:59;4.10;99.90
55091;DHT22;40985;53.180;5.800;2022-12-07T04:14:25;4.10;99.90
55091;DHT22;40985;53.180;5.800;2022-12-07T04:16:59;4.00;99.90
55091;DHT22;40985;53.180;5.800;2022-12-07T04:19:27;4.00;99.90
55091;DHT22;40985;53.180;5.800;2022-12-07T04:21:54;4.00;99.90
55091;DHT22;40985;53.180;5.800;2022-12-07T04:24:20;4.00;99.90
55091;DHT22;40985;53.180;5.800;2022-12-07T04:26:47;4.00;99.90
55091;DHT22;40985;53.180;5.800;2022-12-07T04:29:14;4.00;99.90
55091;DHT22;40985;53.180;5.800;2022-12-07T04:31:40;4.10;99.90
55091;DHT22;40985;53.180;5.800;2022-12-07T04:34:06;4.10;99.90
55091;DHT22;40985;53.180;5.800;2022-12-07T04:36:33;4.20;99.90
55091;DHT22;40985;53.180;5.800;2022-12-07T04:39:00;4.20;99.90
55091;DHT22;40985;53.180;5.800;2022-12-07T04:41:26;4.10;99.90
55091;DHT22;40985;53.180;5.800;2022-12-07T04:44:03;4.10;99.90
55091;DHT22;40985;53.180;5.800;2022-12-07T04:46:32;4.00;99.90
55091;DHT22;40985;53.180;5.800;2022-12-07T04:48:58;4.00;99.90
55091;DHT22;40985;53.180;5.800;2022-12-07T04:51:26;4.00;99.90
55091;DHT22;40985;53.180;5.800;2022-12-07T04:53:53;4.00;99.90
55091;DHT22;40985;53.180;5.800;2022-12-07T04:56:19;4.00;99.90
55091;DHT22;40985;53.180;5.800;2022-12-07T04:58:46;4.00;99.90
55091;DHT22;40985;53.180;5.800;2022-12-07T05:01:13;4.00;99.90
55091;DHT22;40985;53.180;5.800;2022-12-07T05:03:39;4.00;99.90
55091;DHT22;40985;53.180;5.800;2022-12-07T05:06:06;4.10;99.90
55091;DHT22;40985;53.180;5.800;2022-12-07T05:08:33;4.10;99.90
55091;DHT22;40985;53.180;5.800;2022-12-07T05:10:59;4.20;99.90
55091;DHT22;40985;53.180;5.800;2022-12-07T05:13:25;4.10;99.90
55091;DHT22;40985;53.180;5.800;2022-12-07T05:15:51;4.00;99.90
55091;DHT22;40985;53.180;5.800;2022-12-07T05:18:16;4.00;99.90
55091;DHT22;40985;53.180;5.800;2022-12-07T05:20:43;4.10;99.90
55091;DHT22;40985;53.180;5.800;2022-12-07T05:23:09;4.10;99.90
55091;DHT22;40985;53.180;5.800;2022-12-07T05:25:35;4.00;99.90
55091;DHT22;40985;53.180;5.800;2022-12-07T05:28:02;4.00;99.90
55091;DHT22;40985;53.180;5.800;2022-12-07T05:30:27;4.00;99.90
55091;DHT22;40985;53.180;5.800;2022-12-07T05:32:53;3.90;99.90
55091;DHT22;40985;53.180;5.800;2022-12-07T05:35:19;3.90;99.90
55091;DHT22;40985;53.180;5.800;2022-12-07T05:37:45;3.80;99.90
55091;DHT22;40985;53.180;5.800;2022-12-07T05:40:13;3.80;99.90
55091;DHT22;40985;53.180;5.800;2022-12-07T05:42:39;3.80;99.90
55091;DHT22;40985;53.180;5.800;2022-12-07T05:45:05;3.80;99.90
55091;DHT22;40985;53.180;5.800;2022-12-07T05:47:31;3.70;99.90
55091;DHT22;40985;53.180;5.800;2022-12-07T05:49:57;3.70;99.90
55091;DHT22;40985;53.180;5.800;2022-12-07T05:52:23;3.60;99.90
55091;DHT22;40985;53.180;5.800;2022-12-07T05:54:49;3.70;99.90
55091;DHT22;40985;53.180;5.800;2022-12-07T05:57:14;3.70;99.90
55091;DHT22;40985;53.180;5.800;2022-12-07T05:59:40;3.80;99.90
55091;DHT22;40985;53.180;5.800;2022-12-07T06:02:12;3.80;99.90
55091;DHT22;40985;53.180;5.800;2022-12-07T06:04:40;3.70;99.90
55091;DHT22;40985;53.180;5.800;2022-12-07T06:07:07;3.70;99.90
55091;DHT22;40985;53.180;5.800;2022-12-07T06:09:34;3.60;99.90
55091;DHT22;40985;53.180;5.800;2022-12-07T06:12:00;3.60;99.90
55091;DHT22;40985;53.180;5.800;2022-12-07T06:14:45;3.60;99.90
55091;DHT22;40985;53.180;5.800;2022-12-07T06:17:11;3.50;99.90
55091;DHT22;40985;53.180;5.800;2022-12-07T06:19:38;3.50;99.90
55091;DHT22;40985;53.180;5.800;2022-12-07T06:22:03;3.50;99.90
55091;DHT22;40985;53.180;5.800;2022-12-07T06:24:31;3.40;99.90
55091;DHT22;40985;53.180;5.800;2022-12-07T06:26:57;3.40;99.90
55091;DHT22;40985;53.180;5.800;2022-12-07T06:29:22;3.40;99.90
55091;DHT22;40985;53.180;5.800;2022-12-07T06:31:48;3.30;99.90
55091;DHT22;40985;53.180;5.800;2022-12-07T06:34:17;3.20;99.90
55091;DHT22;40985;53.180;5.800;2022-12-07T06:36:43;3.30;99.90
55091;DHT22;40985;53.180;5.800;2022-12-07T06:39:09;3.30;99.90
55091;DHT22;40985;53.180;5.800;2022-12-07T06:41:37;3.30;99.90
55091;DHT22;40985;53.180;5.800;2022-12-07T06:44:04;3.30;99.90
55091;DHT22;40985;53.180;5.800;2022-12-07T06:46:30;3.30;99.90
55091;DHT22;40985;53.180;5.800;2022-12-07T06:48:56;3.40;99.90
55091;DHT22;40985;53.180;5.800;2022-12-07T06:51:22;3.60;99.90
55091;DHT22;40985;53.180;5.800;2022-12-07T06:53:47;3.60;99.90
55091;DHT22;40985;53.180;5.800;2022-12-07T06:56:13;3.60;99.90
55091;DHT22;40985;53.180;5.800;2022-12-07T06:58:39;3.50;99.90
55091;DHT22;40985;53.180;5.800;2022-12-07T07:01:13;3.50;99.90
55091;DHT22;40985;53.180;5.800;2022-12-07T07:03:39;3.50;99.90
55091;DHT22;40985;53.180;5.800;2022-12-07T07:06:05;3.50;99.90
55091;DHT22;40985;53.180;5.800;2022-12-07T07:08:31;3.60;99.90
55091;DHT22;40985;53.180;5.800;2022-12-07T07:10:57;3.70;99.90
55091;DHT22;40985;53.180;5.800;2022-12-07T07:13:23;3.70;99.90
55091;DHT22;40985;53.180;5.800;2022-12-07T07:15:48;3.90;99.90
55091;DHT22;40985;53.180;5.800;2022-12-07T07:18:14;4.00;99.90
55091;DHT22;40985;53.180;5.800;2022-12-07T07:20:40;4.00;99.90
55091;DHT22;40985;53.180;5.800;2022-12-07T07:23:06;4.00;99.90
55091;DHT22;40985;53.180;5.800;2022-12-07T07:25:32;3.90;99.90
55091;DHT22;40985;53.180;5.800;2022-12-07T07:27:57;4.00;99.90
55091;DHT22;40985;53.180;5.800;2022-12-07T07:30:23;3.90;99.90
55091;DHT22;40985;53.180;5.800;2022-12-07T07:32:49;4.00;99.90
55091;DHT22;40985;53.180;5.800;2022-12-07T07:35:15;4.00;99.90
55091;DHT22;40985;53.180;5.800;2022-12-07T07:37:41;4.00;99.90
55091;DHT22;40985;53.180;5.800;2022-12-07T07:40:08;4.00;99.90
55091;DHT22;40985;53.180;5.800;2022-12-07T07:42:34;3.90;99.90
55091;DHT22;40985;53.180;5.800;2022-12-07T07:44:59;4.00;99.90
55091;DHT22;40985;53.180;5.800;2022-12-07T07:47:25;4.00;99.90
55091;DHT22;40985;53.180;5.800;2022-12-07T07:49:50;4.00;99.90
55091;DHT22;40985;53.180;5.800;2022-12-07T07:52:16;3.90;99.90
55091;DHT22;40985;53.180;5.800;2022-12-07T07:54:42;3.90;99.90
55091;DHT22;40985;53.180;5.800;2022-12-07T07:57:08;3.70;99.90
55091;DHT22;40985;53.180;5.800;2022-12-07T07:59:33;3.70;99.90
55091;DHT22;40985;53.180;5.800;2022-12-07T08:01:59;3.70;99.90
55091;DHT22;40985;53.180;5.800;2022-12-07T08:04:24;3.60;99.90
55091;DHT22;40985;53.180;5.800;2022-12-07T08:06:50;3.60;99.90
55091;DHT22;40985;53.180;5.800;2022-12-07T08:09:16;3.70;99.90
55091;DHT22;40985;53.180;5.800;2022-12-07T08:11:41;3.80;99.90
55091;DHT22;40985;53.180;5.800;2022-12-07T08:14:07;3.80;99.90
55091;DHT22;40985;53.180;5.800;2022-12-07T08:16:33;4.00;99.90
55091;DHT22;40985;53.180;5.800;2022-12-07T08:18:58;4.10;99.90
55091;DHT22;40985;53.180;5.800;2022-12-07T08:21:24;4.10;99.90
55091;DHT22;40985;53.180;5.800;2022-12-07T08:23:50;4.00;99.90
55091;DHT22;40985;53.180;5.800;2022-12-07T08:26:16;3.90;99.90
55091;DHT22;40985;53.180;5.800;2022-12-07T08:28:42;3.80;99.90
55091;DHT22;40985;53.180;5.800;2022-12-07T08:31:12;3.80;99.90
55091;DHT22;40985;53.180;5.800;2022-12-07T08:33:38;3.70;99.90
55091;DHT22;40985;53.180;5.800;2022-12-07T08:36:10;3.70;99.90
55091;DHT22;40985;53.180;5.800;2022-12-07T08:38:37;3.70;99.90
55091;DHT22;40985;53.180;5.800;2022-12-07T08:41:04;3.80;99.90
55091;DHT22;40985;53.180;5.800;2022-12-07T08:43:30;3.80;99.90
55091;DHT22;40985;53.180;5.800;2022-12-07T08:48:41;3.70;99.90
55091;DHT22;40985;53.180;5.800;2022-12-07T08:51:09;3.70;99.90
55091;DHT22;40985;53.180;5.800;2022-12-07T08:53:37;3.70;99.90
55091;DHT22;40985;53.180;5.800;2022-12-07T08:56:04;3.70;99.90
55091;DHT22;40985;53.180;5.800;2022-12-07T08:58:30;3.70;99.90
55091;DHT22;40985;53.180;5.800;2022-12-07T09:00:55;3.70;99.90
55091;DHT22;40985;53.180;5.800;2022-12-07T09:03:21;3.70;99.90
55091;DHT22;40985;53.180;5.800;2022-12-07T09:05:47;3.70;99.90
55091;DHT22;40985;53.180;5.800;2022-12-07T09:08:12;3.80;99.90
55091;DHT22;40985;53.180;5.800;2022-12-07T09:10:38;3.70;99.90
55091;DHT22;40985;53.180;5.800;2022-12-07T09:13:04;3.70;99.90
55091;DHT22;40985;53.180;5.800;2022-12-07T09:15:30;3.70;99.90
55091;DHT22;40985;53.180;5.800;2022-12-07T09:17:55;3.70;99.90
55091;DHT22;40985;53.180;5.800;2022-12-07T09:20:21;3.70;99.90
55091;DHT22;40985;53.180;5.800;2022-12-07T09:22:47;3.80;99.90
55091;DHT22;40985;53.180;5.800;2022-12-07T09:25:13;3.90;99.90
55091;DHT22;40985;53.180;5.800;2022-12-07T09:27:39;4.10;99.90
55091;DHT22;40985;53.180;5.800;2022-12-07T09:30:06;4.20;99.90
55091;DHT22;40985;53.180;5.800;2022-12-07T09:32:32;4.30;99.90
55091;DHT22;40985;53.180;5.800;2022-12-07T09:34:58;4.40;99.90
55091;DHT22;40985;53.180;5.800;2022-12-07T09:37:24;4.40;99.90
55091;DHT22;40985;53.180;5.800;2022-12-07T09:39:49;4.40;99.90
55091;DHT22;40985;53.180;5.800;2022-12-07T09:42:26;4.40;99.90
55091;DHT22;40985;53.180;5.800;2022-12-07T09:44:52;4.40;99.90
55091;DHT22;40985;53.180;5.800;2022-12-07T09:47:18;4.40;99.90
55091;DHT22;40985;53.180;5.800;2022-12-07T09:49:44;4.50;99.90
55091;DHT22;40985;53.180;5.800;2022-12-07T09:54:48;4.70;99.90
55091;DHT22;40985;53.180;5.800;2022-12-07T09:57:14;4.70;99.90
55091;DHT22;40985;53.180;5.800;2022-12-07T09:59:40;4.80;99.90
55091;DHT22;40985;53.180;5.800;2022-12-07T10:02:37;4.80;99.90
55091;DHT22;40985;53.180;5.800;2022-12-07T10:05:12;4.80;99.90
55091;DHT22;40985;53.180;5.800;2022-12-07T10:07:38;4.80;99.90
55091;DHT22;40985;53.180;5.800;2022-12-07T10:10:12;4.90;99.90
55091;DHT22;40985;53.180;5.800;2022-12-07T10:15:20;5.00;99.90
55091;DHT22;40985;53.180;5.800;2022-12-07T10:17:52;5.10;99.90
55091;DHT22;40985;53.180;5.800;2022-12-07T10:20:22;5.30;99.90
55091;DHT22;40985;53.180;5.800;2022-12-07T10:25:22;5.30;99.90
55091;DHT22;40985;53.180;5.800;2022-12-07T10:28:16;5.10;99.90
55091;DHT22;40985;53.180;5.800;2022-12-07T10:33:37;5.10;99.90
55091;DHT22;40985;53.180;5.800;2022-12-07T10:36:33;5.00;99.90
55091;DHT22;40985;53.180;5.800;2022-12-07T10:39:21;5.00;99.90
55091;DHT22;40985;53.180;5.800;2022-12-07T10:44:34;4.90;99.90
55091;DHT22;40985;53.180;5.800;2022-12-07T10:53:33;4.80;99.90
55091;DHT22;40985;53.180;5.800;2022-12-07T11:07:51;4.70;99.90
55091;DHT22;40985;53.180;5.800;2022-12-07T11:15:34;4.60;99.90
55091;DHT22;40985;53.180;5.800;2022-12-07T11:37:38;4.90;99.90
55091;DHT22;40985;53.180;5.800;2022-12-07T11:40:21;4.90;99.90
55091;DHT22;40985;53.180;5.800;2022-12-07T11:45:37;4.80;99.90
55091;DHT22;40985;53.180;5.800;2022-12-07T11:50:52;4.80;99.90
55091;DHT22;40985;53.180;5.800;2022-12-07T11:56:13;4.90;99.90
55091;DHT22;40985;53.180;5.800;2022-12-07T12:03:45;4.90;99.90
55091;DHT22;40985;53.180;5.800;2022-12-07T12:06:12;4.90;99.90
55091;DHT22;40985;53.180;5.800;2022-12-07T12:12:32;5.00;99.90
55091;DHT22;40985;53.180;5.800;2022-12-07T12:26:24;4.80;99.90
55091;DHT22;40985;53.180;5.800;2022-12-07T12:28:55;4.80;99.90
55091;DHT22;40985;53.180;5.800;2022-12-07T12:33:50;4.80;99.90
55091;DHT22;40985;53.180;5.800;2022-12-07T12:47:00;5.30;99.90
55091;DHT22;40985;53.180;5.800;2022-12-07T12:49:43;5.40;99.90
55091;DHT22;40985;53.180;5.800;2022-12-07T12:57:35;5.10;99.90
55091;DHT22;40985;53.180;5.800;2022-12-07T13:02:48;5.00;99.90
55091;DHT22;40985;53.180;5.800;2022-12-07T13:05:22;4.90;99.90
55091;DHT22;40985;53.180;5.800;2022-12-07T13:08:03;4.70;99.90
55091;DHT22;40985;53.180;5.800;2022-12-07T13:10:34;4.70;99.90
55091;DHT22;40985;53.180;5.800;2022-12-07T13:20:49;4.70;99.90
55091;DHT22;40985;53.180;5.800;2022-12-07T13:23:21;4.70;99.90
55091;DHT22;40985;53.180;5.800;2022-12-07T13:28:48;4.60;99.90
55091;DHT22;40985;53.180;5.800;2022-12-07T13:33:46;4.50;99.90
55091;DHT22;40985;53.180;5.800;2022-12-07T13:36:25;4.40;99.90
55091;DHT22;40985;53.180;5.800;2022-12-07T13:38:57;4.40;99.90
55091;DHT22;40985;53.180;5.800;2022-12-07T13:41:28;4.30;99.90
55091;DHT22;40985;53.180;5.800;2022-12-07T13:46:51;4.20;99.90
55091;DHT22;40985;53.180;5.800;2022-12-07T13:49:26;4.20;99.90
55091;DHT22;40985;53.180;5.800;2022-12-07T13:51:54;4.20;99.90
55091;DHT22;40985;53.180;5.800;2022-12-07T13:54:21;4.20;99.90
55091;DHT22;40985;53.180;5.800;2022-12-07T13:56:51;4.20;99.90
55091;DHT22;40985;53.180;5.800;2022-12-07T13:59:21;4.20;99.90
55091;DHT22;40985;53.180;5.800;2022-12-07T14:01:48;4.20;99.90
55091;DHT22;40985;53.180;5.800;2022-12-07T14:06:57;4.10;99.90
55091;DHT22;40985;53.180;5.800;2022-12-07T14:09:25;4.10;99.90
55091;DHT22;40985;53.180;5.800;2022-12-07T14:11:53;4.00;99.90
55091;DHT22;40985;53.180;5.800;2022-12-07T14:14:25;4.00;99.90
55091;DHT22;40985;53.180;5.800;2022-12-07T14:19:47;3.90;99.90
55091;DHT22;40985;53.180;5.800;2022-12-07T14:22:37;3.80;99.90
55091;DHT22;40985;53.180;5.800;2022-12-07T14:25:25;3.80;99.90
55091;DHT22;40985;53.180;5.800;2022-12-07T14:27:56;3.80;99.90
55091;DHT22;40985;53.180;5.800;2022-12-07T14:30:31;3.70;99.90
55091;DHT22;40985;53.180;5.800;2022-12-07T14:32:59;3.70;99.90
55091;DHT22;40985;53.180;5.800;2022-12-07T14:35:25;3.70;99.90
55091;DHT22;40985;53.180;5.800;2022-12-07T14:37:51;3.60;99.90
55091;DHT22;40985;53.180;5.800;2022-12-07T14:40:28;3.60;99.90
55091;DHT22;40985;53.180;5.800;2022-12-07T14:43:01;3.50;99.90
55091;DHT22;40985;53.180;5.800;2022-12-07T14:45:27;3.50;99.90
55091;DHT22;40985;53.180;5.800;2022-12-07T14:47:53;3.40;99.90
55091;DHT22;40985;53.180;5.800;2022-12-07T14:50:20;3.30;99.90
55091;DHT22;40985;53.180;5.800;2022-12-07T14:52:49;3.30;99.90
55091;DHT22;40985;53.180;5.800;2022-12-07T14:55:23;3.20;99.90
55091;DHT22;40985;53.180;5.800;2022-12-07T14:57:49;3.20;99.90
55091;DHT22;40985;53.180;5.800;2022-12-07T15:00:16;3.20;99.90
55091;DHT22;40985;53.180;5.800;2022-12-07T15:02:43;3.10;99.90
55091;DHT22;40985;53.180;5.800;2022-12-07T15:05:09;3.10;99.90
55091;DHT22;40985;53.180;5.800;2022-12-07T15:07:35;3.00;99.90
55091;DHT22;40985;53.180;5.800;2022-12-07T15:10:00;3.10;99.90
55091;DHT22;40985;53.180;5.800;2022-12-07T15:12:26;3.10;99.90
55091;DHT22;40985;53.180;5.800;2022-12-07T15:14:52;3.10;99.90
55091;DHT22;40985;53.180;5.800;2022-12-07T15:17:18;3.20;99.90
55091;DHT22;40985;53.180;5.800;2022-12-07T15:19:43;3.30;99.90
55091;DHT22;40985;53.180;5.800;2022-12-07T15:22:09;3.40;99.90
55091;DHT22;40985;53.180;5.800;2022-12-07T15:24:36;3.50;99.90
55091;DHT22;40985;53.180;5.800;2022-12-07T15:27:03;3.50;99.90
55091;DHT22;40985;53.180;5.800;2022-12-07T15:29:28;3.50;99.90
55091;DHT22;40985;53.180;5.800;2022-12-07T15:31:54;3.50;99.90
55091;DHT22;40985;53.180;5.800;2022-12-07T15:34:20;3.40;99.90
55091;DHT22;40985;53.180;5.800;2022-12-07T15:36:45;3.40;99.90
55091;DHT22;40985;53.180;5.800;2022-12-07T15:39:12;3.40;99.90
55091;DHT22;40985;53.180;5.800;2022-12-07T15:41:37;3.30;99.90
55091;DHT22;40985;53.180;5.800;2022-12-07T15:44:03;3.40;99.90
55091;DHT22;40985;53.180;5.800;2022-12-07T15:46:47;3.30;99.90
55091;DHT22;40985;53.180;5.800;2022-12-07T15:49:15;3.30;99.90
55091;DHT22;40985;53.180;5.800;2022-12-07T15:51:42;3.30;99.90
55091;DHT22;40985;53.180;5.800;2022-12-07T15:54:21;3.10;99.90
55091;DHT22;40985;53.180;5.800;2022-12-07T15:56:48;3.10;99.90
55091;DHT22;40985;53.180;5.800;2022-12-07T15:59:14;3.10;99.90
55091;DHT22;40985;53.180;5.800;2022-12-07T16:01:40;3.00;99.90
55091;DHT22;40985;53.180;5.800;2022-12-07T16:04:05;3.00;99.90
55091;DHT22;40985;53.180;5.800;2022-12-07T16:06:31;3.00;99.90
55091;DHT22;40985;53.180;5.800;2022-12-07T16:08:57;2.90;99.90
55091;DHT22;40985;53.180;5.800;2022-12-07T16:11:23;2.90;99.90
55091;DHT22;40985;53.180;5.800;2022-12-07T16:13:49;2.80;99.90
55091;DHT22;40985;53.180;5.800;2022-12-07T16:16:16;2.80;99.90
55091;DHT22;40985;53.180;5.800;2022-12-07T16:18:44;2.80;99.90
55091;DHT22;40985;53.180;5.800;2022-12-07T16:21:10;2.80;99.90
55091;DHT22;40985;53.180;5.800;2022-12-07T16:23:35;2.80;99.90
55091;DHT22;40985;53.180;5.800;2022-12-07T16:26:06;2.70;99.90
55091;DHT22;40985;53.180;5.800;2022-12-07T16:28:32;2.70;99.90
55091;DHT22;40985;53.180;5.800;2022-12-07T16:31:02;2.70;99.90
55091;DHT22;40985;53.180;5.800;2022-12-07T16:33:28;2.70;99.90
55091;DHT22;40985;53.180;5.800;2022-12-07T16:35:54;2.70;99.90
55091;DHT22;40985;53.180;5.800;2022-12-07T16:38:19;2.60;99.90
55091;DHT22;40985;53.180;5.800;2022-12-07T16:40:47;2.60;99.90
55091;DHT22;40985;53.180;5.800;2022-12-07T16:43:13;2.50;99.90
55091;DHT22;40985;53.180;5.800;2022-12-07T16:45:39;2.50;99.90
55091;DHT22;40985;53.180;5.800;2022-12-07T16:48:04;2.50;99.90
55091;DHT22;40985;53.180;5.800;2022-12-07T16:50:30;2.50;99.90
55091;DHT22;40985;53.180;5.800;2022-12-07T16:52:56;2.50;99.90
55091;DHT22;40985;53.180;5.800;2022-12-07T16:55:22;2.50;99.90
55091;DHT22;40985;53.180;5.800;2022-12-07T16:57:47;2.60;99.90
55091;DHT22;40985;53.180;5.800;2022-12-07T17:00:13;2.50;99.90
55091;DHT22;40985;53.180;5.800;2022-12-07T17:02:39;2.60;99.90
55091;DHT22;40985;53.180;5.800;2022-12-07T17:05:04;2.70;99.90
55091;DHT22;40985;53.180;5.800;2022-12-07T17:07:30;2.90;99.90
55091;DHT22;40985;53.180;5.800;2022-12-07T17:09:56;3.10;99.90
55091;DHT22;40985;53.180;5.800;2022-12-07T17:12:21;3.20;99.90
55091;DHT22;40985;53.180;5.800;2022-12-07T17:14:47;3.20;99.90
55091;DHT22;40985;53.180;5.800;2022-12-07T17:17:31;3.20;99.90
55091;DHT22;40985;53.180;5.800;2022-12-07T17:19:57;3.40;99.90
55091;DHT22;40985;53.180;5.800;2022-12-07T17:22:23;3.40;99.90
55091;DHT22;40985;53.180;5.800;2022-12-07T17:24:48;3.40;99.90
55091;DHT22;40985;53.180;5.800;2022-12-07T17:27:14;3.30;99.90
55091;DHT22;40985;53.180;5.800;2022-12-07T17:29:40;3.30;99.90
55091;DHT22;40985;53.180;5.800;2022-12-07T17:32:05;3.30;99.90
55091;DHT22;40985;53.180;5.800;2022-12-07T17:34:31;3.20;99.90
55091;DHT22;40985;53.180;5.800;2022-12-07T17:36:57;3.20;99.90
55091;DHT22;40985;53.180;5.800;2022-12-07T17:39:22;3.10;99.90
55091;DHT22;40985;53.180;5.800;2022-12-07T17:41:48;3.10;99.90
55091;DHT22;40985;53.180;5.800;2022-12-07T17:44:33;3.00;99.90
55091;DHT22;40985;53.180;5.800;2022-12-07T17:46:58;3.00;99.90
55091;DHT22;40985;53.180;5.800;2022-12-07T17:49:26;2.90;99.90
55091;DHT22;40985;53.180;5.800;2022-12-07T17:51:52;2.80;99.90
55091;DHT22;40985;53.180;5.800;2022-12-07T17:54:36;2.70;99.90
55091;DHT22;40985;53.180;5.800;2022-12-07T17:57:02;2.70;99.90
55091;DHT22;40985;53.180;5.800;2022-12-07T17:59:28;2.60;99.90
55091;DHT22;40985;53.180;5.800;2022-12-07T18:01:53;2.70;99.90
55091;DHT22;40985;53.180;5.800;2022-12-07T18:04:19;2.70;99.90
55091;DHT22;40985;53.180;5.800;2022-12-07T18:06:45;2.70;99.90
55091;DHT22;40985;53.180;5.800;2022-12-07T18:09:11;2.60;99.90
55091;DHT22;40985;53.180;5.800;2022-12-07T18:11:36;2.60;99.90
55091;DHT22;40985;53.180;5.800;2022-12-07T18:14:03;2.60;99.90
55091;DHT22;40985;53.180;5.800;2022-12-07T18:16:29;2.60;99.90
55091;DHT22;40985;53.180;5.800;2022-12-07T18:19:05;2.60;99.90
55091;DHT22;40985;53.180;5.800;2022-12-07T18:21:32;2.60;99.90
55091;DHT22;40985;53.180;5.800;2022-12-07T18:24:00;2.60;99.90
55091;DHT22;40985;53.180;5.800;2022-12-07T18:26:28;2.60;99.90
55091;DHT22;40985;53.180;5.800;2022-12-07T18:28:54;2.60;99.90
55091;DHT22;40985;53.180;5.800;2022-12-07T18:31:20;2.60;99.90
55091;DHT22;40985;53.180;5.800;2022-12-07T18:33:46;2.50;99.90